Regional Weather

 

KCRX - Corinth, Mississippi, USA
Distance from station: SW 29mi, 47km
Updated: Sun, 24-Mar-2019 6:35pm CDT
Mostly cloudy
Mostly cloudy
 Wind from SSW
Wind: SSW 5 mph , 7 km/h
Temperature: 70°F , 21°C
Dew Point: 43°F , 6°C
Humidity: 38%
Barometer: 30.06 inHg , 1017.9 hPa
Clouds: Mostly cloudy
Visibility: 10 miles , 16 km
Cloud details: Mostly cloudy 7000 ft
Mostly cloudy 8000 ft
Mostly cloudy 12000 ft
2019/03/24 23:35 KCRX 242335Z AUTO 20004KT 10SM BKN070 BKN080 BKN120 21/06 A3006 RMK AO2
KMKL - Jackson, Tennessee, USA
Distance from station: NW 46mi, 73km
Updated: Sun, 24-Mar-2019 6:53pm CDT
Overcast
Overcast
 Wind from SSW
Wind: SSW 8 mph , 13 km/h
Temperature: 66°F , 19°C
Dew Point: 45°F , 7°C
Humidity: 46%
Barometer: 30.03 inHg , 1016.9 hPa
Clouds: Overcast
Visibility: 10 miles , 16 km
Cloud details: Overcast 6000 ft
2019/03/24 23:53 KMKL 242353Z AUTO 20007KT 10SM OVC060 19/07 A3003 RMK AO2 SLP167 T01940072 10228 20189 56009
 
KMSL - Muscle Shoal, Alabama, USA
Distance from station: SE 49mi, 79km
Updated: Sun, 24-Mar-2019 6:53pm CDT
Mostly cloudy
Mostly cloudy
 Wind from SSW
Wind: SSW 8 mph , 13 km/h
Temperature: 70°F , 21°C
Dew Point: 39°F , 4°C
Humidity: 33%
Barometer: 30.08 inHg , 1018.6 hPa
Clouds: Mostly cloudy
Visibility: 10 miles , 16 km
Cloud details: Mostly cloudy 12000 ft
2019/03/24 23:53 KMSL 242353Z AUTO 21007KT 10SM BKN120 21/04 A3008 RMK AO2 SLP185 60000 T02060044 10228 20178 56008
KTUP - Tupelo, Mississippi, USA
Distance from station: SSW 72mi, 117km
Updated: Sun, 24-Mar-2019 6:53pm CDT
Few Clouds
Few Clouds
 Wind from S
Wind: S 7 mph , 11 km/h
Temperature: 70°F , 21°C
Dew Point: 37°F , 3°C
Humidity: 31%
Barometer: 30.07 inHg , 1018.3 hPa
Clouds: Few Clouds
Visibility: 10 miles , 16 km
Cloud details: Few Clouds 4300 ft
2019/03/24 23:53 KTUP 242353Z 19006KT 10SM FEW043 21/03 A3007 RMK AO2 SLP181 T02060033 10244 20200 56003 $
 
KHSV - Huntsville, Alabama, USA
Distance from station: ESE 92mi, 148km
Updated: Sun, 24-Mar-2019 6:53pm CDT
Mostly cloudy
Mostly cloudy
 Wind from S
Wind: S 7 mph , 11 km/h
Temperature: 64°F , 18°C
Dew Point: 43°F , 6°C
Humidity: 46%
Barometer: 30.09 inHg , 1019 hPa
Clouds: Mostly cloudy
Visibility: 10 miles , 16 km
Cloud details: Mostly cloudy 10000 ft
Mostly cloudy 25000 ft
2019/03/24 23:53 KHSV 242353Z 18006KT 10SM BKN100 BKN250 18/06 A3009 RMK AO2 SLP186 60000 T01830061 10233 20183 56008 $
KBNA - Nashville, TN, USA
Distance from station: NE 97mi, 157km
Updated: Sun, 24-Mar-2019 6:53pm CDT
Few Clouds
Few Clouds
 Wind from SSW
Wind: SSW 9 mph , 15 km/h
Temperature: 66°F , 19°C
Dew Point: 37°F , 3°C
Humidity: 35%
Barometer: 30.06 inHg , 1017.9 hPa
Clouds: Few Clouds
Visibility: 10 miles , 16 km
Cloud details: Few Clouds 8000 ft
Few Clouds 25000 ft
2019/03/24 23:53 KBNA 242353Z 21008KT 10SM FEW080 FEW250 19/03 A3006 RMK AO2 SLP179 60000 T01940028 10222 20156 56010
 
KMEM - Memphis, Tennessee, USA
Distance from station: W 99mi, 159km
Updated: Sun, 24-Mar-2019 6:54pm CDT
Overcast
Overcast
 Wind from S
Wind: S 7 mph , 11 km/h
Temperature: 66°F , 19°C
Dew Point: 52°F , 11°C
Humidity: 60%
Barometer: 30.03 inHg , 1016.9 hPa
Clouds: Overcast
Visibility: 10 miles , 16 km
Cloud details: Mostly cloudy 4800 ft
Overcast 25000 ft
2019/03/24 23:54 KMEM 242354Z 18006KT 10SM BKN048 OVC250 19/11 A3003 RMK AO2 SLP165 T01940106 10222 20194 58010 $
KCKV - Clarksville, TN, USA
Distance from station: NNE 99mi, 159km
Updated: Sun, 24-Mar-2019 6:52pm CDT
Clear
Clear
 Wind from SSW
Wind: SSW 12 mph , 19 km/h
Temperature: 66°F , 19°C
Dew Point: 43°F , 6°C
Humidity: 43%
Barometer: 30.02 inHg , 1016.6 hPa
Clouds: Clear
Visibility: 10 miles , 16 km
2019/03/24 23:52 KCKV 242352Z AUTO 20010KT 10SM CLR 19/06 A3002 RMK AO2 SLP165 T01890056 10206 20106 56012
 
KCHA - Chattanooga, TN, USA
Distance from station: E 165mi, 265km
Updated: Sun, 24-Mar-2019 6:53pm CDT
Mostly cloudy
Mostly cloudy
 Wind from S
Wind: S 3 mph , 6 km/h
Temperature: 70°F , 21°C
Dew Point: 34°F , 1°C
Humidity: 27%
Barometer: 30.09 inHg , 1019 hPa
Clouds: Mostly cloudy
Visibility: 10 miles , 16 km
Cloud details: Few Clouds 6500 ft
Mostly cloudy 10000 ft
Mostly cloudy 15000 ft
Mostly cloudy 25000 ft
2019/03/24 23:53 KCHA 242353Z 18003KT 10SM FEW065 BKN100 BKN150 BKN250 21/01 A3009 RMK AO2 SLP188 T02110006 10239 20211 56006
KTYS - Knoxville, TN, USA
Distance from station: E 234mi, 377km
Updated: Sun, 24-Mar-2019 6:53pm CDT
Overcast
Overcast
 Wind from S
Wind: S 3 mph , 6 km/h
Temperature: 64°F , 18°C
Dew Point: 32°F , 0°C
Humidity: 30%
Barometer: 30.09 inHg , 1019 hPa
Clouds: Overcast
Visibility: 10 miles , 16 km
Cloud details: Mostly cloudy 10000 ft
Overcast 25000 ft
2019/03/24 23:53 KTYS 242353Z 17003KT 10SM BKN100 OVC250 18/00 A3009 RMK AO2 SLP189 T01780000 10228 20172 56007

Refresh Page for latest data.